createdAt,value
2019-01-21T00:00:50.947Z,0.00
2019-01-21T00:01:50.924Z,0.00
2019-01-21T00:02:50.903Z,0.00
2019-01-21T00:03:50.880Z,0.00
2019-01-21T00:04:50.913Z,0.00
2019-01-21T00:05:50.897Z,0.00
2019-01-21T00:06:51.216Z,0.00
2019-01-21T00:07:50.853Z,0.00
2019-01-21T00:08:50.829Z,0.00
2019-01-21T00:09:50.813Z,0.00
2019-01-21T00:10:50.844Z,0.00
2019-01-21T00:11:50.799Z,0.00
2019-01-21T00:12:50.798Z,0.00
2019-01-21T00:13:50.776Z,0.00
2019-01-21T00:14:50.767Z,0.00
2019-01-21T00:15:50.878Z,0.00
2019-01-21T00:16:50.740Z,0.00
2019-01-21T00:17:50.783Z,0.00
2019-01-21T00:18:50.766Z,0.00
2019-01-21T00:19:50.744Z,0.00
2019-01-21T00:20:50.790Z,0.00
2019-01-21T00:21:50.730Z,0.00
2019-01-21T00:22:50.704Z,0.00
2019-01-21T00:23:50.743Z,0.00
2019-01-21T00:24:50.695Z,0.00
2019-01-21T00:25:50.749Z,0.00
2019-01-21T00:26:50.663Z,0.00
2019-01-21T00:27:50.629Z,0.00
2019-01-21T00:28:50.612Z,0.00
2019-01-21T00:29:50.598Z,0.00
2019-01-21T00:30:50.614Z,0.00
2019-01-21T00:31:50.573Z,0.00
2019-01-21T00:32:50.604Z,0.00
2019-01-21T00:33:50.554Z,0.00
2019-01-21T00:34:50.547Z,0.00
2019-01-21T00:35:50.767Z,0.00
2019-01-21T00:36:50.526Z,0.00
2019-01-21T00:37:50.515Z,0.00
2019-01-21T00:38:50.504Z,0.00
2019-01-21T00:39:50.486Z,0.00
2019-01-21T00:40:50.501Z,0.00
2019-01-21T00:41:50.485Z,0.00
2019-01-21T00:42:50.453Z,0.00
2019-01-21T00:43:50.469Z,0.00
2019-01-21T00:44:50.459Z,0.00
2019-01-21T00:45:50.497Z,0.00
2019-01-21T00:46:50.411Z,0.00
2019-01-21T00:47:50.500Z,0.00
2019-01-21T00:48:50.385Z,0.00
2019-01-21T00:49:50.376Z,0.00
2019-01-21T00:50:50.387Z,0.00
2019-01-21T00:51:50.437Z,0.00
2019-01-21T00:52:50.347Z,0.00
2019-01-21T00:53:50.354Z,0.00
2019-01-21T00:54:51.131Z,0.00
2019-01-21T00:55:50.348Z,0.00
2019-01-21T00:56:50.306Z,0.00
2019-01-21T00:57:50.309Z,0.00
2019-01-21T00:58:50.792Z,0.00
2019-01-21T00:59:50.349Z,0.00
2019-01-21T01:00:50.292Z,0.00
2019-01-21T01:01:50.297Z,0.00
2019-01-21T01:02:50.241Z,0.00
2019-01-21T01:03:50.228Z,0.00
2019-01-21T01:04:50.220Z,0.00
2019-01-21T01:05:50.223Z,0.00
2019-01-21T01:06:50.189Z,0.00
2019-01-21T01:07:50.193Z,0.00
2019-01-21T01:08:50.174Z,0.00
2019-01-21T01:09:50.180Z,0.00
2019-01-21T01:10:50.171Z,0.00
2019-01-21T01:11:50.139Z,0.00
2019-01-21T01:12:50.128Z,0.00
2019-01-21T01:13:50.132Z,0.00
2019-01-21T01:14:50.101Z,0.00
2019-01-21T01:15:50.125Z,0.00
2019-01-21T01:16:50.871Z,0.00
2019-01-21T01:17:50.100Z,0.00
2019-01-21T01:18:50.087Z,0.00
2019-01-21T01:19:50.092Z,0.00
2019-01-21T01:20:50.161Z,0.00
2019-01-21T01:21:50.060Z,0.00
2019-01-21T01:22:50.138Z,0.00
2019-01-21T01:23:49.999Z,0.00
2019-01-21T01:24:49.997Z,0.00
2019-01-21T01:25:50.029Z,0.00
2019-01-21T01:26:50.010Z,0.00
2019-01-21T01:27:49.977Z,0.00
2019-01-21T01:28:49.944Z,0.00
2019-01-21T01:29:49.938Z,0.00
2019-01-21T01:30:49.931Z,0.00
2019-01-21T01:31:49.933Z,0.00
2019-01-21T01:32:49.903Z,0.00
2019-01-21T01:33:49.896Z,0.00
2019-01-21T01:34:49.878Z,0.00
2019-01-21T01:35:49.883Z,0.00
2019-01-21T01:36:49.859Z,0.00
2019-01-21T01:37:49.847Z,0.00
2019-01-21T01:38:49.847Z,0.00
2019-01-21T01:39:49.822Z,0.00
2019-01-21T01:40:49.830Z,0.00
2019-01-21T01:41:49.826Z,0.00
2019-01-21T01:42:49.793Z,0.00
2019-01-21T01:43:49.782Z,0.00
2019-01-21T01:44:49.777Z,0.00
2019-01-21T01:45:49.759Z,0.00
2019-01-21T01:46:49.784Z,0.00
2019-01-21T01:47:49.735Z,0.00
2019-01-21T01:48:49.732Z,0.00
2019-01-21T01:49:49.715Z,0.00
2019-01-21T01:50:49.712Z,0.00
2019-01-21T01:51:49.736Z,0.00
2019-01-21T01:52:49.686Z,0.00
2019-01-21T01:53:49.670Z,0.00
2019-01-21T01:54:49.660Z,0.00
2019-01-21T01:55:49.659Z,0.00
2019-01-21T01:56:49.671Z,0.00
2019-01-21T01:57:49.632Z,0.00
2019-01-21T01:58:52.871Z,0.00
2019-01-21T01:59:49.611Z,0.00
2019-01-21T02:00:49.592Z,0.00
2019-01-21T02:01:49.977Z,0.00
2019-01-21T02:02:49.580Z,0.00
2019-01-21T02:03:49.631Z,0.00
2019-01-21T02:04:49.550Z,0.00
2019-01-21T02:05:49.535Z,0.00
2019-01-21T02:06:49.593Z,0.00
2019-01-21T02:07:49.522Z,0.00
2019-01-21T02:08:49.508Z,0.00
2019-01-21T02:09:49.498Z,0.00
2019-01-21T02:10:49.482Z,0.00
2019-01-21T02:11:49.513Z,0.00
2019-01-21T02:12:49.499Z,0.00
2019-01-21T02:13:49.486Z,0.00
2019-01-21T02:14:49.470Z,0.00
2019-01-21T02:15:49.504Z,0.00
2019-01-21T02:16:49.453Z,0.00
2019-01-21T02:17:52.117Z,0.00
2019-01-21T02:18:49.423Z,0.00
2019-01-21T02:19:49.420Z,0.00
2019-01-21T02:20:49.410Z,0.00
2019-01-21T02:21:49.462Z,0.00
2019-01-21T02:22:49.390Z,0.00
2019-01-21T02:23:49.393Z,0.00
2019-01-21T02:24:49.341Z,0.00
2019-01-21T02:25:49.358Z,0.00
2019-01-21T02:26:49.404Z,0.00
2019-01-21T02:27:49.331Z,0.00
2019-01-21T02:28:49.288Z,0.00
2019-01-21T02:29:49.282Z,0.00
2019-01-21T02:30:49.322Z,0.00
2019-01-21T02:31:49.285Z,0.00
2019-01-21T02:32:49.240Z,0.00
2019-01-21T02:33:49.246Z,0.00
2019-01-21T02:34:49.281Z,0.00
2019-01-21T02:35:49.242Z,0.00
2019-01-21T02:36:49.244Z,0.00
2019-01-21T02:37:49.189Z,0.00
2019-01-21T02:38:49.171Z,0.00
2019-01-21T02:39:49.172Z,0.00
2019-01-21T02:40:49.157Z,0.00
2019-01-21T02:41:49.257Z,0.00
2019-01-21T02:42:49.131Z,0.00
2019-01-21T02:43:49.122Z,0.00
2019-01-21T02:44:49.114Z,0.00
2019-01-21T02:45:49.102Z,0.00
2019-01-21T02:46:49.129Z,0.00
2019-01-21T02:47:49.078Z,0.00
2019-01-21T02:48:49.110Z,0.00
2019-01-21T02:49:49.056Z,0.00
2019-01-21T02:50:49.045Z,0.00
2019-01-21T02:51:49.061Z,0.00
2019-01-21T02:52:49.041Z,0.00
2019-01-21T02:53:49.023Z,0.00
2019-01-21T02:54:49.057Z,0.00
2019-01-21T02:55:48.988Z,0.00
2019-01-21T02:56:49.009Z,0.00
2019-01-21T02:57:48.965Z,0.00
2019-01-21T02:58:48.952Z,0.00
2019-01-21T02:59:48.968Z,0.00
2019-01-21T03:00:48.931Z,0.00
2019-01-21T03:01:48.921Z,0.00
2019-01-21T03:02:48.910Z,0.00
2019-01-21T03:03:48.896Z,0.00
2019-01-21T03:04:48.889Z,0.00
2019-01-21T03:05:48.888Z,0.00
2019-01-21T03:06:48.866Z,0.00
2019-01-21T03:07:48.982Z,0.00
2019-01-21T03:08:48.859Z,0.00
2019-01-21T03:09:48.832Z,0.00
2019-01-21T03:10:48.817Z,0.00
2019-01-21T03:11:48.816Z,0.00
2019-01-21T03:12:48.823Z,0.00
2019-01-21T03:13:48.784Z,0.00
2019-01-21T03:14:48.773Z,0.00
2019-01-21T03:15:48.766Z,0.00
2019-01-21T03:16:48.743Z,0.00
2019-01-21T03:17:48.849Z,0.00
2019-01-21T03:18:48.771Z,0.00
2019-01-21T03:19:48.788Z,0.00
2019-01-21T03:20:48.758Z,0.00
2019-01-21T03:21:48.734Z,0.00
2019-01-21T03:22:48.787Z,0.00
2019-01-21T03:23:48.711Z,0.00
2019-01-21T03:24:48.667Z,0.00
2019-01-21T03:25:48.690Z,0.00
2019-01-21T03:26:48.927Z,0.00
2019-01-21T03:27:48.726Z,0.00
2019-01-21T03:28:48.632Z,0.00
2019-01-21T03:29:48.622Z,0.00
2019-01-21T03:30:48.632Z,0.00
2019-01-21T03:31:48.591Z,0.00
2019-01-21T03:32:48.631Z,0.00
2019-01-21T03:33:48.605Z,0.00
2019-01-21T03:34:48.589Z,0.00
2019-01-21T03:35:48.559Z,0.00
2019-01-21T03:36:48.550Z,0.00
2019-01-21T03:37:48.554Z,0.00
2019-01-21T03:38:48.517Z,0.00
2019-01-21T03:39:48.505Z,0.00
2019-01-21T03:40:48.487Z,0.00
2019-01-21T03:41:48.482Z,0.00
2019-01-21T03:42:48.498Z,0.00
2019-01-21T03:43:48.464Z,0.00
2019-01-21T03:44:51.456Z,0.00
2019-01-21T03:45:48.493Z,0.00
2019-01-21T03:46:48.433Z,0.00
2019-01-21T03:47:48.443Z,0.00
2019-01-21T03:48:48.402Z,0.00
2019-01-21T03:49:48.394Z,0.00
2019-01-21T03:50:48.377Z,0.00
2019-01-21T03:51:48.368Z,0.00
2019-01-21T03:52:48.386Z,0.00
2019-01-21T03:53:48.361Z,0.00
2019-01-21T03:54:48.333Z,0.00
2019-01-21T03:55:48.320Z,0.00
2019-01-21T03:56:48.335Z,0.00
2019-01-21T03:57:48.342Z,0.00
2019-01-21T03:58:48.296Z,0.00
2019-01-21T03:59:48.548Z,0.00
2019-01-21T04:00:48.268Z,0.00
2019-01-21T04:01:48.253Z,0.00
2019-01-21T04:02:48.273Z,0.00
2019-01-21T04:03:48.233Z,0.00
2019-01-21T04:04:48.221Z,0.00
2019-01-21T04:05:48.219Z,0.00
2019-01-21T04:06:48.200Z,0.00
2019-01-21T04:07:48.625Z,0.00
2019-01-21T04:08:48.180Z,0.00
2019-01-21T04:09:48.171Z,0.00
2019-01-21T04:10:48.162Z,0.00
2019-01-21T04:11:48.144Z,0.00
2019-01-21T04:12:48.206Z,0.00
2019-01-21T04:13:48.133Z,0.00
2019-01-21T04:14:48.114Z,0.00
2019-01-21T04:15:48.104Z,0.00
2019-01-21T04:16:48.092Z,0.00
2019-01-21T04:17:48.256Z,0.00
2019-01-21T04:18:48.108Z,0.00
2019-01-21T04:19:48.091Z,0.00
2019-01-21T04:20:48.089Z,0.00
2019-01-21T04:21:48.077Z,0.00
2019-01-21T04:22:48.135Z,0.00
2019-01-21T04:23:48.045Z,0.00
2019-01-21T04:24:48.006Z,0.00
2019-01-21T04:25:48.031Z,0.00
2019-01-21T04:26:48.014Z,0.00
2019-01-21T04:27:48.068Z,0.00
2019-01-21T04:28:47.965Z,0.00
2019-01-21T04:29:47.948Z,0.00
2019-01-21T04:30:47.937Z,0.00
2019-01-21T04:31:47.940Z,0.00
2019-01-21T04:32:47.946Z,0.00
2019-01-21T04:33:47.914Z,0.00
2019-01-21T04:34:47.889Z,0.00
2019-01-21T04:35:47.880Z,0.00
2019-01-21T04:36:47.868Z,0.00
2019-01-21T04:37:47.860Z,0.00
2019-01-21T04:38:47.866Z,0.00
2019-01-21T04:39:47.840Z,0.00
2019-01-21T04:40:47.844Z,0.00
2019-01-21T04:41:47.816Z,0.00
2019-01-21T04:42:47.804Z,0.00
2019-01-21T04:43:47.915Z,0.00
2019-01-21T04:44:47.781Z,0.00
2019-01-21T04:45:47.768Z,0.00
2019-01-21T04:46:47.764Z,0.00
2019-01-21T04:47:47.754Z,0.00
2019-01-21T04:48:47.774Z,0.00
2019-01-21T04:49:47.726Z,0.00
2019-01-21T04:50:47.711Z,0.00
2019-01-21T04:51:48.340Z,0.00
2019-01-21T04:52:47.699Z,0.00
2019-01-21T04:53:47.710Z,0.00
2019-01-21T04:54:47.677Z,0.00
2019-01-21T04:55:47.675Z,0.00
2019-01-21T04:56:47.652Z,0.00
2019-01-21T04:57:47.648Z,0.00
2019-01-21T04:58:47.664Z,0.00
2019-01-21T04:59:47.622Z,0.00
2019-01-21T05:00:47.613Z,0.00
2019-01-21T05:01:47.649Z,0.00
2019-01-21T05:02:47.585Z,0.00
2019-01-21T05:03:47.600Z,0.00
2019-01-21T05:04:47.563Z,0.00
2019-01-21T05:05:47.570Z,0.00
2019-01-21T05:06:47.569Z,0.00
2019-01-21T05:07:47.589Z,0.00
2019-01-21T05:08:47.542Z,0.00
2019-01-21T05:09:47.597Z,0.00
2019-01-21T05:10:47.577Z,0.00
2019-01-21T05:11:47.483Z,0.00
2019-01-21T05:12:47.472Z,0.00
2019-01-21T05:13:47.532Z,0.00
2019-01-21T05:14:47.454Z,0.00
2019-01-21T05:15:47.463Z,0.00
2019-01-21T05:16:47.449Z,0.00
2019-01-21T05:17:47.461Z,0.00
2019-01-21T05:18:47.511Z,0.00
2019-01-21T05:19:47.542Z,0.00
2019-01-21T05:20:47.415Z,0.00
2019-01-21T05:21:47.409Z,0.00
2019-01-21T05:22:47.393Z,0.00
2019-01-21T05:23:47.475Z,0.00
2019-01-21T05:24:47.340Z,0.00
2019-01-21T05:25:47.369Z,0.00
2019-01-21T05:26:47.346Z,0.00
2019-01-21T05:27:47.338Z,0.00
2019-01-21T05:28:47.337Z,0.00
2019-01-21T05:29:47.326Z,0.00
2019-01-21T05:30:47.271Z,0.00
2019-01-21T05:31:47.258Z,0.00
2019-01-21T05:32:47.274Z,0.00
2019-01-21T05:33:47.261Z,0.00
2019-01-21T05:34:47.233Z,0.00
2019-01-21T05:35:47.218Z,0.00
2019-01-21T05:36:47.207Z,0.00
2019-01-21T05:37:47.197Z,0.00
2019-01-21T05:38:47.231Z,0.00
2019-01-21T05:39:47.184Z,0.00
2019-01-21T05:40:47.204Z,0.00
2019-01-21T05:41:47.158Z,0.00
2019-01-21T05:42:47.147Z,0.00
2019-01-21T05:43:47.369Z,0.00
2019-01-21T05:44:47.128Z,0.00
2019-01-21T05:45:47.118Z,0.00
2019-01-21T05:46:47.099Z,0.00
2019-01-21T05:47:47.094Z,0.00
2019-01-21T05:48:48.996Z,0.00
2019-01-21T05:49:47.066Z,0.00
2019-01-21T05:50:47.052Z,0.00
2019-01-21T05:51:47.082Z,0.00
2019-01-21T05:52:47.030Z,0.00
2019-01-21T05:53:47.100Z,0.00
2019-01-21T05:54:47.025Z,0.00
2019-01-21T05:55:46.998Z,0.00
2019-01-21T05:56:47.029Z,0.00
2019-01-21T05:57:46.986Z,0.00
2019-01-21T05:58:46.981Z,0.00
2019-01-21T05:59:46.955Z,0.00
2019-01-21T06:00:47.033Z,0.00
2019-01-21T06:01:46.942Z,0.00
2019-01-21T06:02:46.927Z,0.00
2019-01-21T06:03:46.916Z,0.00
2019-01-21T06:04:46.906Z,0.00
2019-01-21T06:05:46.885Z,0.00
2019-01-21T06:06:46.875Z,0.00
2019-01-21T06:07:46.914Z,0.00
2019-01-21T06:08:46.891Z,0.00
2019-01-21T06:09:46.875Z,0.00
2019-01-21T06:10:46.868Z,0.00
2019-01-21T06:11:46.818Z,0.00
2019-01-21T06:12:46.834Z,0.00
2019-01-21T06:13:46.805Z,0.00
2019-01-21T06:14:46.857Z,0.00
2019-01-21T06:15:46.794Z,0.00
2019-01-21T06:16:46.772Z,0.00
2019-01-21T06:17:46.798Z,0.00
2019-01-21T06:18:46.790Z,0.00
2019-01-21T06:19:46.841Z,0.00
2019-01-21T06:20:46.796Z,0.00
2019-01-21T06:21:46.760Z,0.00
2019-01-21T06:22:47.105Z,0.00
2019-01-21T06:23:46.725Z,0.00
2019-01-21T06:24:47.493Z,0.00
2019-01-21T06:25:46.739Z,0.00
2019-01-21T06:26:46.694Z,0.00
2019-01-21T06:27:46.677Z,0.00
2019-01-21T06:28:46.649Z,0.00
2019-01-21T06:29:46.629Z,0.00
2019-01-21T06:30:46.649Z,0.00
2019-01-21T06:31:46.604Z,0.00
2019-01-21T06:32:46.587Z,104.00
2019-01-21T06:33:46.715Z,204.00
2019-01-21T06:34:46.573Z,276.00
2019-01-21T06:35:46.590Z,304.00
2019-01-21T06:36:46.544Z,308.00
2019-01-21T06:37:46.545Z,312.00
2019-01-21T06:38:46.577Z,312.00
2019-01-21T06:39:46.518Z,308.00
2019-01-21T06:40:46.532Z,308.00
2019-01-21T06:41:46.490Z,304.00
2019-01-21T06:42:46.502Z,304.00
2019-01-21T06:43:46.492Z,304.00
2019-01-21T06:44:47.400Z,192.00
2019-01-21T06:45:46.477Z,292.00
2019-01-21T06:46:46.461Z,292.00
2019-01-21T06:47:46.430Z,256.00
2019-01-21T06:48:46.431Z,264.00
2019-01-21T06:49:46.419Z,260.00
2019-01-21T06:50:46.420Z,264.00
2019-01-21T06:51:46.393Z,260.00
2019-01-21T06:52:46.371Z,284.00
2019-01-21T06:53:46.377Z,284.00
2019-01-21T06:54:46.377Z,288.00
2019-01-21T06:55:46.368Z,288.00
2019-01-21T06:56:47.544Z,288.00
2019-01-21T06:57:46.345Z,292.00
2019-01-21T06:58:46.301Z,292.00
2019-01-21T06:59:46.290Z,292.00
2019-01-21T07:00:46.360Z,296.00
2019-01-21T07:01:46.394Z,296.00
2019-01-21T07:02:46.268Z,296.00
2019-01-21T07:03:46.253Z,300.00
2019-01-21T07:04:46.259Z,300.00
2019-01-21T07:05:46.288Z,304.00
2019-01-21T07:06:46.244Z,308.00
2019-01-21T07:07:46.205Z,308.00
2019-01-21T07:08:46.194Z,312.00
2019-01-21T07:09:46.186Z,312.00
2019-01-21T07:10:46.215Z,320.00
2019-01-21T07:11:48.154Z,324.00
2019-01-21T07:12:46.150Z,324.00
2019-01-21T07:13:46.168Z,332.00
2019-01-21T07:14:46.138Z,336.00
2019-01-21T07:15:46.148Z,336.00
2019-01-21T07:16:46.125Z,344.00
2019-01-21T07:17:46.148Z,348.00
2019-01-21T07:18:46.115Z,352.00
2019-01-21T07:19:46.294Z,356.00
2019-01-21T07:20:46.097Z,364.00
2019-01-21T07:21:46.091Z,368.00
2019-01-21T07:22:46.084Z,372.00
2019-01-21T07:23:46.061Z,380.00
2019-01-21T07:24:46.052Z,384.00
2019-01-21T07:25:46.050Z,392.00
2019-01-21T07:26:46.020Z,400.00
2019-01-21T07:27:46.016Z,408.00
2019-01-21T07:28:46.390Z,412.00
2019-01-21T07:29:47.156Z,424.00
2019-01-21T07:30:46.114Z,428.00
2019-01-21T07:31:45.988Z,436.00
2019-01-21T07:32:45.972Z,444.00
2019-01-21T07:33:45.935Z,452.00
2019-01-21T07:34:45.912Z,464.00
2019-01-21T07:35:45.985Z,476.00
2019-01-21T07:36:45.888Z,484.00
2019-01-21T07:37:45.922Z,500.00
2019-01-21T07:38:45.873Z,516.00
2019-01-21T07:39:45.848Z,524.00
2019-01-21T07:40:45.884Z,544.00
2019-01-21T07:41:45.862Z,560.00
2019-01-21T07:42:45.847Z,576.00
2019-01-21T07:43:45.807Z,592.00
2019-01-21T07:44:45.837Z,612.00
2019-01-21T07:45:45.787Z,628.00
2019-01-21T07:46:45.802Z,652.00
2019-01-21T07:47:45.775Z,672.00
2019-01-21T07:48:45.804Z,696.00
2019-01-21T07:49:45.772Z,708.00
2019-01-21T07:50:45.747Z,636.00
2019-01-21T07:51:45.779Z,652.00
2019-01-21T07:52:45.722Z,668.00
2019-01-21T07:53:45.711Z,680.00
2019-01-21T07:54:45.689Z,700.00
2019-01-21T07:55:55.719Z,716.00
2019-01-21T07:56:45.713Z,728.00
2019-01-21T07:57:45.672Z,744.00
2019-01-21T07:58:45.678Z,756.00
2019-01-21T07:59:45.729Z,780.00
2019-01-21T08:00:45.652Z,796.00
2019-01-21T08:01:45.636Z,816.00
2019-01-21T08:02:45.616Z,832.00
2019-01-21T08:03:45.644Z,860.00
2019-01-21T08:04:45.632Z,880.00
2019-01-21T08:05:45.575Z,900.00
2019-01-21T08:06:45.709Z,920.00
2019-01-21T08:07:46.780Z,936.00
2019-01-21T08:08:45.560Z,952.00
2019-01-21T08:09:45.532Z,972.00
2019-01-21T08:10:45.553Z,988.00
2019-01-21T08:11:45.554Z,1004.00
2019-01-21T08:12:45.514Z,1008.00
2019-01-21T08:13:45.919Z,964.00
2019-01-21T08:14:45.606Z,1044.00
2019-01-21T08:15:45.461Z,1068.00
2019-01-21T08:16:45.466Z,1064.00
2019-01-21T08:17:45.682Z,1088.00
2019-01-21T08:18:45.513Z,1104.00
2019-01-21T08:19:45.481Z,1132.00
2019-01-21T08:20:45.432Z,1144.00
2019-01-21T08:21:45.506Z,1160.00
2019-01-21T08:22:45.416Z,1180.00
2019-01-21T08:23:45.505Z,1196.00
2019-01-21T08:24:45.411Z,1208.00
2019-01-21T08:25:45.385Z,1224.00
2019-01-21T08:26:45.425Z,1252.00
2019-01-21T08:27:45.388Z,1296.00
2019-01-21T08:28:45.375Z,1312.00
2019-01-21T08:29:45.376Z,1324.00
2019-01-21T08:30:45.338Z,1336.00
2019-01-21T08:31:45.448Z,1344.00
2019-01-21T08:32:45.315Z,1356.00
2019-01-21T08:33:45.294Z,1372.00
2019-01-21T08:34:45.330Z,1376.00
2019-01-21T08:35:45.269Z,1376.00
2019-01-21T08:36:45.511Z,1396.00
2019-01-21T08:37:45.279Z,1404.00
2019-01-21T08:38:46.307Z,1416.00
2019-01-21T08:39:48.697Z,1428.00
2019-01-21T08:40:45.302Z,1444.00
2019-01-21T08:41:45.239Z,1464.00
2019-01-21T08:42:45.200Z,1480.00
2019-01-21T08:43:45.162Z,1496.00
2019-01-21T08:44:45.964Z,1508.00
2019-01-21T08:45:45.545Z,1512.00
2019-01-21T08:46:45.601Z,1560.00
2019-01-21T08:47:46.426Z,1572.00
2019-01-21T08:48:45.907Z,1576.00
2019-01-21T08:49:45.369Z,1596.00
2019-01-21T08:50:45.122Z,1612.00
2019-01-21T08:51:45.106Z,1624.00
2019-01-21T08:52:45.087Z,1640.00
2019-01-21T08:53:45.085Z,1652.00
2019-01-21T08:54:45.078Z,1668.00
2019-01-21T08:55:45.063Z,1692.00
2019-01-21T08:56:48.307Z,1704.00
2019-01-21T08:57:44.992Z,1724.00
2019-01-21T08:58:44.983Z,1736.00
2019-01-21T08:59:44.986Z,1756.00
2019-01-21T09:00:44.963Z,1776.00
2019-01-21T09:01:44.948Z,1788.00
2019-01-21T09:02:44.963Z,1800.00
2019-01-21T09:03:44.929Z,1812.00
2019-01-21T09:04:44.962Z,1824.00
2019-01-21T09:05:44.924Z,1828.00
2019-01-21T09:06:44.895Z,1820.00
2019-01-21T09:07:44.924Z,1844.00
2019-01-21T09:08:44.891Z,1868.00
2019-01-21T09:09:44.881Z,1872.00
2019-01-21T09:10:44.863Z,1892.00
2019-01-21T09:11:44.842Z,1904.00
2019-01-21T09:12:44.855Z,1920.00
2019-01-21T09:13:44.839Z,1940.00
2019-01-21T09:14:44.823Z,1944.00
2019-01-21T09:15:47.497Z,1956.00
2019-01-21T09:16:44.816Z,1956.00
2019-01-21T09:17:44.916Z,1976.00
2019-01-21T09:18:45.005Z,1988.00
2019-01-21T09:19:45.027Z,2004.00
2019-01-21T09:20:44.897Z,2008.00
2019-01-21T09:21:45.204Z,2036.00
2019-01-21T09:22:45.929Z,2040.00
2019-01-21T09:23:46.469Z,2036.00
2019-01-21T09:24:46.328Z,2052.00
2019-01-21T09:25:45.985Z,2056.00
2019-01-21T09:26:45.178Z,2064.00
2019-01-21T09:27:45.226Z,2080.00
2019-01-21T09:28:45.064Z,2084.00
2019-01-21T09:29:45.082Z,2092.00
2019-01-21T09:30:45.292Z,2100.00
2019-01-21T09:31:44.908Z,2104.00
2019-01-21T09:32:44.912Z,2116.00
2019-01-21T09:33:44.956Z,2124.00
2019-01-21T09:34:46.018Z,2140.00
2019-01-21T09:35:45.524Z,2144.00
2019-01-21T09:36:45.475Z,2152.00
2019-01-21T09:37:44.962Z,2164.00
2019-01-21T09:38:45.580Z,2208.00
2019-01-21T09:39:45.995Z,2220.00
2019-01-21T09:40:45.316Z,2232.00
2019-01-21T09:41:44.968Z,2236.00
2019-01-21T09:42:44.583Z,2260.00
2019-01-21T09:43:44.637Z,2268.00
2019-01-21T09:44:44.523Z,2272.00
2019-01-21T09:45:44.497Z,2288.00
2019-01-21T09:46:44.463Z,2300.00
2019-01-21T09:47:44.523Z,2304.00
2019-01-21T09:48:44.474Z,2300.00
2019-01-21T09:49:44.430Z,2320.00
2019-01-21T09:50:44.466Z,2348.00
2019-01-21T09:51:44.446Z,2352.00
2019-01-21T09:52:44.388Z,2360.00
2019-01-21T09:53:44.403Z,2368.00
2019-01-21T09:54:49.676Z,2384.00
2019-01-21T09:55:44.949Z,2400.00
2019-01-21T09:56:44.388Z,2404.00
2019-01-21T09:57:44.371Z,2412.00
2019-01-21T09:58:44.384Z,2436.00
2019-01-21T09:59:44.391Z,2460.00
2019-01-21T10:00:44.349Z,2492.00
2019-01-21T10:01:44.326Z,2508.00
2019-01-21T10:02:44.319Z,2504.00
2019-01-21T10:03:44.303Z,2504.00
2019-01-21T10:04:44.334Z,2520.00
2019-01-21T10:05:44.268Z,2532.00
2019-01-21T10:06:47.347Z,2532.00
2019-01-21T10:07:44.286Z,2556.00
2019-01-21T10:08:44.304Z,2560.00
2019-01-21T10:09:44.322Z,2572.00
2019-01-21T10:10:44.195Z,2564.00
2019-01-21T10:11:44.197Z,2776.00
2019-01-21T10:12:44.191Z,2536.00
2019-01-21T10:13:44.567Z,2576.00
2019-01-21T10:14:44.162Z,2592.00
2019-01-21T10:15:44.414Z,2596.00
2019-01-21T10:16:44.136Z,2608.00
2019-01-21T10:17:44.172Z,2628.00
2019-01-21T10:18:44.816Z,2628.00
2019-01-21T10:19:50.347Z,2624.00
2019-01-21T10:20:44.179Z,2656.00
2019-01-21T10:21:44.735Z,2672.00
2019-01-21T10:22:44.213Z,2688.00
2019-01-21T10:23:44.106Z,2716.00
2019-01-21T10:24:44.076Z,2724.00
2019-01-21T10:25:44.081Z,2756.00
2019-01-21T10:26:45.663Z,2756.00
2019-01-21T10:27:44.065Z,2804.00
2019-01-21T10:28:44.049Z,2824.00
2019-01-21T10:29:44.053Z,2836.00
2019-01-21T10:30:44.136Z,2880.00
2019-01-21T10:31:44.068Z,2916.00
2019-01-21T10:32:44.001Z,2936.00
2019-01-21T10:33:43.983Z,2936.00
2019-01-21T10:34:43.965Z,3028.00
2019-01-21T10:35:43.932Z,3084.00
2019-01-21T10:36:43.952Z,3132.00
2019-01-21T10:37:43.894Z,3212.00
2019-01-21T10:38:43.911Z,3292.00
2019-01-21T10:39:44.404Z,3388.00
2019-01-21T10:40:43.868Z,3580.00
2019-01-21T10:41:43.844Z,4652.00
2019-01-21T10:42:43.832Z,7864.00
2019-01-21T10:43:43.975Z,11664.00
2019-01-21T10:44:43.835Z,14448.00
2019-01-21T10:45:43.825Z,17632.00
2019-01-21T10:46:44.024Z,18464.00
2019-01-21T10:47:43.796Z,18176.00
2019-01-21T10:48:43.792Z,18016.00
2019-01-21T10:49:43.770Z,17920.00
2019-01-21T10:50:43.764Z,18400.00
2019-01-21T10:51:43.735Z,18944.00
2019-01-21T10:52:43.821Z,18720.00
2019-01-21T10:53:43.722Z,19072.00
2019-01-21T10:54:45.063Z,19168.00
2019-01-21T10:55:43.862Z,19520.00
2019-01-21T10:56:43.698Z,19584.00
2019-01-21T10:57:43.677Z,19872.00
2019-01-21T10:58:43.678Z,19744.00
2019-01-21T10:59:43.775Z,19872.00
2019-01-21T11:00:44.517Z,19712.00
2019-01-21T11:01:43.648Z,19584.00
2019-01-21T11:02:43.840Z,19648.00
2019-01-21T11:03:43.657Z,19616.00
2019-01-21T11:04:43.714Z,19072.00
2019-01-21T11:05:43.608Z,18688.00
2019-01-21T11:06:43.709Z,19520.00
2019-01-21T11:07:43.863Z,19904.00
2019-01-21T11:08:43.869Z,20448.00
2019-01-21T11:09:44.072Z,20256.00
2019-01-21T11:10:44.703Z,20448.00
2019-01-21T11:11:43.652Z,20416.00
2019-01-21T11:12:43.573Z,20672.00
2019-01-21T11:13:44.403Z,20448.00
2019-01-21T11:14:43.994Z,19360.00
2019-01-21T11:15:43.578Z,420.00
2019-01-21T11:16:44.045Z,420.00
2019-01-21T11:17:44.749Z,416.00
2019-01-21T11:18:44.571Z,396.00
2019-01-21T11:19:44.552Z,396.00
2019-01-21T11:20:43.497Z,336.00
2019-01-21T11:21:44.893Z,396.00
2019-01-21T11:22:43.505Z,388.00
2019-01-21T11:23:43.484Z,392.00
2019-01-21T11:24:43.612Z,408.00
2019-01-21T11:25:43.422Z,408.00
2019-01-21T11:26:43.503Z,412.00
2019-01-21T11:27:43.406Z,408.00
2019-01-21T11:28:43.382Z,408.00
2019-01-21T11:29:43.487Z,408.00
2019-01-21T11:30:43.321Z,408.00
2019-01-21T11:31:43.498Z,408.00
2019-01-21T11:32:44.050Z,408.00
2019-01-21T11:33:43.324Z,404.00
2019-01-21T11:34:43.587Z,408.00
2019-01-21T11:35:43.370Z,404.00
2019-01-21T11:36:43.339Z,408.00
2019-01-21T11:37:43.389Z,404.00
2019-01-21T11:38:43.363Z,400.00
2019-01-21T11:39:43.822Z,404.00
2019-01-21T11:40:43.352Z,404.00
2019-01-21T11:41:43.215Z,400.00
2019-01-21T11:42:43.347Z,396.00
2019-01-21T11:43:43.179Z,396.00
2019-01-21T11:44:43.196Z,400.00
2019-01-21T11:45:44.175Z,396.00
2019-01-21T11:46:43.161Z,396.00
2019-01-21T11:47:43.135Z,396.00
2019-01-21T11:48:43.338Z,392.00
2019-01-21T11:49:43.226Z,396.00
2019-01-21T11:50:43.327Z,392.00
2019-01-21T11:51:43.132Z,396.00
2019-01-21T11:52:43.114Z,396.00
2019-01-21T11:53:43.115Z,108.00
2019-01-21T11:54:43.094Z,112.00
2019-01-21T11:55:43.044Z,112.00
2019-01-21T11:56:43.031Z,44.00
2019-01-21T11:57:43.013Z,48.00
2019-01-21T11:58:47.588Z,48.00
2019-01-21T11:59:43.441Z,52.00
2019-01-21T12:00:42.995Z,48.00
2019-01-21T12:01:42.981Z,48.00
2019-01-21T12:02:46.590Z,48.00
2019-01-21T12:03:42.956Z,16.00
2019-01-21T12:04:42.994Z,16.00
2019-01-21T12:05:42.945Z,16.00
2019-01-21T12:06:42.930Z,16.00
2019-01-21T12:07:42.906Z,16.00
2019-01-21T12:08:42.894Z,12.00
2019-01-21T12:09:42.892Z,16.00
2019-01-21T12:10:42.887Z,16.00
2019-01-21T12:11:42.886Z,12.00
2019-01-21T12:12:43.026Z,12.00
2019-01-21T12:13:42.860Z,12.00
2019-01-21T12:14:42.835Z,16.00
2019-01-21T12:15:42.818Z,12.00
2019-01-21T12:16:42.821Z,12.00
2019-01-21T12:17:42.921Z,12.00
2019-01-21T12:18:42.828Z,16.00
2019-01-21T12:19:42.822Z,20.00
2019-01-21T12:20:42.802Z,28.00
2019-01-21T12:21:42.805Z,28.00
2019-01-21T12:22:42.780Z,28.00
2019-01-21T12:23:42.763Z,28.00
2019-01-21T12:24:42.763Z,32.00
2019-01-21T12:25:42.765Z,36.00
2019-01-21T12:26:42.726Z,44.00
2019-01-21T12:27:42.726Z,72.00
2019-01-21T12:28:42.696Z,112.00
2019-01-21T12:29:42.667Z,308.00
2019-01-21T12:30:43.715Z,760.00
2019-01-21T12:31:43.078Z,968.00
2019-01-21T12:32:42.637Z,652.00
2019-01-21T12:33:43.622Z,272.00
2019-01-21T12:34:42.642Z,156.00
2019-01-21T12:35:42.677Z,104.00
2019-01-21T12:36:45.160Z,72.00
2019-01-21T12:37:43.358Z,52.00
2019-01-21T12:38:42.574Z,40.00
2019-01-21T12:39:42.792Z,36.00
2019-01-21T12:40:45.629Z,32.00
2019-01-21T12:41:42.556Z,32.00
2019-01-21T12:42:42.579Z,32.00
2019-01-21T12:43:42.606Z,28.00
2019-01-21T12:44:42.954Z,24.00
2019-01-21T12:45:42.677Z,20.00
2019-01-21T12:46:42.563Z,344.00
2019-01-21T12:47:42.548Z,232.00